Time;durP1;ratioP1;P1;durP2;ratioP2;P2;SDS_P1;SDS_P2;PMS_P1;PMS_P2;Temp;Humidity;BMP_temperature;BMP_pressure;BME280_temperature;BME280_humidity;BME280_pressure;Samples;Min_cycle;Max_cycle;Signal;HPM_P1;HPM_P2
2022/06/11 00:01:51;;;;;;;17.63;10.25;;;16.60;99.90;;;;;;4978150;28;88287;-35
2022/06/11 00:04:24;;;;;;;14.40;11.57;;;16.50;99.90;;;;;;4977741;28;89720;-37
2022/06/11 00:06:53;;;;;;;16.52;13.35;;;16.60;99.90;;;;;;4977499;28;89683;-35
2022/06/11 00:09:20;;;;;;;15.07;13.60;;;16.60;99.90;;;;;;4978904;28;89178;-35
2022/06/11 00:11:46;;;;;;;14.30;12.85;;;16.60;99.90;;;;;;4978024;28;88103;-37
2022/06/11 00:14:12;;;;;;;13.18;11.80;;;16.70;99.90;;;;;;4977765;28;90072;-36
2022/06/11 00:16:40;;;;;;;19.52;13.50;;;16.70;99.90;;;;;;4977638;28;90518;-35
2022/06/11 00:19:07;;;;;;;16.42;12.48;;;16.70;99.90;;;;;;4977928;28;90816;-34
2022/06/11 00:21:35;;;;;;;21.58;12.98;;;16.70;99.90;;;;;;4977925;28;89331;-38
2022/06/11 00:24:02;;;;;;;15.43;12.68;;;16.70;99.90;;;;;;4978018;28;90364;-37
2022/06/11 00:26:28;;;;;;;12.25;11.13;;;16.80;99.90;;;;;;4977684;28;89430;-35
2022/06/11 00:28:53;;;;;;;17.27;12.73;;;16.80;99.90;;;;;;4977385;28;89891;-33
2022/06/11 00:31:20;;;;;;;15.60;12.60;;;16.80;99.90;;;;;;4981297;28;89266;-37
2022/06/11 00:33:46;;;;;;;13.43;11.32;;;16.80;99.90;;;;;;4981805;28;89233;-36
2022/06/11 00:36:12;;;;;;;13.43;11.35;;;16.80;99.90;;;;;;4980506;28;88922;-35
2022/06/11 00:38:40;;;;;;;12.43;10.50;;;16.80;99.90;;;;;;4967621;28;90314;-34
2022/06/11 00:41:06;;;;;;;12.23;9.27;;;16.70;99.90;;;;;;4980808;28;90407;-34
2022/06/11 00:43:33;;;;;;;10.02;9.07;;;16.70;99.90;;;;;;4981668;28;90764;-33
2022/06/11 00:46:01;;;;;;;11.48;9.38;;;16.80;99.90;;;;;;4981545;28;88545;-36
2022/06/11 00:48:38;;;;;;;16.00;9.02;;;16.70;99.90;;;;;;4981603;28;89841;-34
2022/06/11 00:51:17;;;;;;;10.43;8.27;;;16.70;99.90;;;;;;4981935;28;89602;-36
2022/06/11 00:53:48;;;;;;;11.80;8.38;;;16.70;99.90;;;;;;4981447;28;90194;-33
2022/06/11 00:56:38;;;;;;;9.40;8.05;;;16.60;99.90;;;;;;4982375;28;90308;-35
2022/06/11 00:59:09;;;;;;;11.77;7.53;;;16.60;99.90;;;;;;5016163;22;91310;-36
2022/06/11 01:01:35;;;;;;;9.73;7.60;;;16.60;99.90;;;;;;4981608;28;89287;-34
2022/06/11 01:04:23;;;;;;;12.50;7.13;;;16.50;99.90;;;;;;4981624;28;90206;-34
2022/06/11 01:06:53;;;;;;;9.52;6.68;;;16.50;99.90;;;;;;4980763;28;89844;-38
2022/06/11 01:09:42;;;;;;;11.45;7.85;;;16.40;99.90;;;;;;4982020;28;89058;-34
2022/06/11 01:12:34;;;;;;;11.95;6.90;;;16.30;99.90;;;;;;4981545;28;89302;-34
2022/06/11 01:15:12;;;;;;;9.38;7.00;;;16.20;99.90;;;;;;4976411;28;90265;-39
2022/06/11 01:18:08;;;;;;;7.75;5.97;;;16.10;99.90;;;;;;4981136;28;89636;-35
2022/06/11 01:20:39;;;;;;;10.70;7.35;;;16.00;99.90;;;;;;4981542;28;89738;-38
2022/06/11 01:23:25;;;;;;;8.00;6.32;;;15.90;99.90;;;;;;4981120;28;88269;-36
2022/06/11 01:25:57;;;;;;;7.95;6.22;;;15.80;99.90;;;;;;4981167;28;90578;-36
2022/06/11 01:28:35;;;;;;;10.75;5.85;;;15.80;99.90;;;;;;4980920;28;89741;-38
2022/06/11 01:31:13;;;;;;;8.50;6.30;;;15.70;99.90;;;;;;4981805;28;90170;-33
2022/06/11 01:33:57;;;;;;;;;;;15.60;99.90;;;;;;4981563;28;90140;-35
2022/06/11 01:36:36;;;;;;;9.10;7.20;;;15.50;99.90;;;;;;4981819;28;90134;-35
2022/06/11 01:39:16;;;;;;;8.48;6.72;;;15.50;99.90;;;;;;4980926;28;89663;-34
2022/06/11 01:41:48;;;;;;;8.27;6.97;;;15.40;99.90;;;;;;4979900;28;89771;-34
2022/06/11 01:44:22;;;;;;;7.32;6.65;;;15.30;99.90;;;;;;4981559;28;87712;-36
2022/06/11 01:46:51;;;;;;;7.55;6.85;;;15.20;99.90;;;;;;4980126;28;92285;-35
2022/06/11 01:49:20;;;;;;;10.38;7.53;;;15.20;99.90;;;;;;4980399;28;88414;-37
2022/06/11 01:52:13;;;;;;;7.60;6.90;;;15.10;99.90;;;;;;4980308;28;89572;-38
2022/06/11 01:54:59;;;;;;;9.98;7.30;;;15.10;99.90;;;;;;4980796;28;89038;-37
2022/06/11 01:58:00;;;;;;;7.32;6.63;;;15.10;99.90;;;;;;4980258;28;90153;-36
2022/06/11 02:00:35;;;;;;;8.02;7.30;;;15.00;99.90;;;;;;4980472;28;92443;-34
2022/06/11 02:03:18;;;;;;;9.80;8.63;;;15.00;99.90;;;;;;4979940;28;90077;-34
2022/06/11 02:06:12;;;;;;;8.18;7.40;;;15.00;99.90;;;;;;4980962;28;89332;-35
2022/06/11 02:08:49;;;;;;;10.65;6.97;;;15.00;99.90;;;;;;4979818;28;90457;-33
2022/06/11 02:11:44;;;;;;;9.57;6.70;;;14.90;99.90;;;;;;4980541;28;89679;-38
2022/06/11 02:14:30;;;;;;;8.23;7.43;;;14.90;99.90;;;;;;4978028;28;89580;-34
2022/06/11 02:17:31;;;;;;;8.98;7.90;;;14.80;99.90;;;;;;4980179;28;89521;-37
2022/06/11 02:20:04;;;;;;;9.65;8.25;;;14.80;99.90;;;;;;4971286;28;91368;-36
2022/06/11 02:22:38;;;;;;;8.68;7.82;;;14.80;99.90;;;;;;4979933;28;90066;-35
2022/06/11 02:25:19;;;;;;;7.22;6.55;;;14.70;99.90;;;;;;4980589;28;90261;-33
2022/06/11 02:27:47;;;;;;;10.68;8.45;;;14.70;99.90;;;;;;4980023;28;89850;-38
2022/06/11 02:30:18;;;;;;;7.93;7.13;;;14.70;99.90;;;;;;4980529;28;90496;-36
2022/06/11 02:32:43;;;;;;;8.88;8.07;;;14.60;99.90;;;;;;4979743;28;89761;-36
2022/06/11 02:35:13;;;;;;;9.73;6.70;;;14.60;99.90;;;;;;4978569;28;91432;-35
2022/06/11 02:37:45;;;;;;;8.23;7.53;;;14.60;99.90;;;;;;4979592;28;88102;-38
2022/06/11 02:40:19;;;;;;;7.43;6.80;;;14.60;99.90;;;;;;4980171;28;90010;-32
2022/06/11 02:42:46;;;;;;;9.35;8.45;;;14.60;99.90;;;;;;4979447;28;89757;-34
2022/06/11 02:45:12;;;;;;;13.38;8.95;;;14.70;99.90;;;;;;4980085;28;89533;-35
2022/06/11 02:47:40;;;;;;;7.70;7.00;;;14.70;99.90;;;;;;4979662;28;90058;-33
2022/06/11 02:50:06;;;;;;;13.25;10.30;;;14.70;99.90;;;;;;4979347;28;90252;-33
2022/06/11 02:52:33;;;;;;;9.20;8.27;;;14.80;99.90;;;;;;4978016;28;90574;-38
2022/06/11 02:54:59;;;;;;;12.75;9.55;;;14.80;99.90;;;;;;4979926;28;90459;-34
2022/06/11 02:57:29;;;;;;;13.52;8.65;;;14.80;99.90;;;;;;4979344;28;89554;-35
2022/06/11 02:59:55;;;;;;;12.73;8.43;;;14.80;99.90;;;;;;4979337;28;90516;-35
2022/06/11 03:02:22;;;;;;;9.93;9.02;;;14.80;99.90;;;;;;4979508;28;90184;-38
2022/06/11 03:04:49;;;;;;;10.05;9.05;;;14.80;99.90;;;;;;4979802;28;89534;-34
2022/06/11 03:07:15;;;;;;;11.27;9.10;;;14.70;99.90;;;;;;4979345;28;90361;-35
2022/06/11 03:09:42;;;;;;;9.73;8.80;;;14.80;99.90;;;;;;4979726;28;90360;-34
2022/06/11 03:12:11;;;;;;;20.13;9.10;;;14.80;99.90;;;;;;4979175;28;90139;-36
2022/06/11 03:14:36;;;;;;;13.27;10.27;;;14.80;99.90;;;;;;4979738;28;90277;-36
2022/06/11 03:17:04;;;;;;;12.60;10.00;;;14.80;99.90;;;;;;4978161;28;88925;-34
2022/06/11 03:19:29;;;;;;;10.90;8.65;;;14.80;99.90;;;;;;4979732;28;90307;-38
2022/06/11 03:21:56;;;;;;;12.48;9.23;;;14.80;99.90;;;;;;4979374;28;89924;-37
2022/06/11 03:24:22;;;;;;;10.63;9.73;;;14.80;99.90;;;;;;4979005;28;89235;-34
2022/06/11 03:26:49;;;;;;;14.13;12.13;;;14.80;99.90;;;;;;4979527;28;88957;-37
2022/06/11 03:29:15;;;;;;;12.93;11.73;;;14.80;99.90;;;;;;4978756;28;90385;-35
2022/06/11 03:31:43;;;;;;;14.30;13.00;;;14.80;99.90;;;;;;4978692;28;89616;-35
2022/06/11 03:34:09;;;;;;;15.60;13.37;;;14.80;99.90;;;;;;4979048;28;89401;-39
2022/06/11 03:36:34;;;;;;;17.50;14.65;;;14.80;99.90;;;;;;4978027;28;89647;-37
2022/06/11 03:39:01;;;;;;;16.13;13.88;;;14.90;99.90;;;;;;4978252;28;90332;-35
2022/06/11 03:41:28;;;;;;;16.70;14.82;;;14.90;99.90;;;;;;4978718;28;90307;-33
2022/06/11 03:43:53;;;;;;;20.13;16.10;;;14.90;99.90;;;;;;4978217;28;90584;-36
2022/06/11 03:46:20;;;;;;;18.70;15.50;;;14.90;99.90;;;;;;4978167;28;89239;-37
2022/06/11 03:48:46;;;;;;;27.10;14.48;;;14.90;99.90;;;;;;4977907;28;90398;-33
2022/06/11 03:51:12;;;;;;;15.32;13.25;;;15.00;99.90;;;;;;4978410;28;88546;-38
2022/06/11 03:53:39;;;;;;;16.67;14.98;;;15.00;99.90;;;;;;4978080;28;89574;-35
2022/06/11 03:56:06;;;;;;;18.95;16.20;;;15.00;99.90;;;;;;4979018;28;89131;-34
2022/06/11 03:58:33;;;;;;;14.93;11.93;;;15.00;99.90;;;;;;4977368;28;91592;-36
2022/06/11 04:01:14;;;;;;;13.75;12.25;;;15.00;99.90;;;;;;4977776;28;88762;-36
2022/06/11 04:04:06;;;;;;;11.85;10.68;;;15.10;99.90;;;;;;4977535;28;89576;-38
2022/06/11 04:06:42;;;;;;;13.85;10.35;;;15.20;99.90;;;;;;4980460;28;90134;-33
2022/06/11 04:09:13;;;;;;;13.15;9.40;;;15.20;99.90;;;;;;4981707;28;91235;-35
2022/06/11 04:11:39;;;;;;;9.52;8.63;;;15.30;99.90;;;;;;4982770;28;89768;-34
2022/06/11 04:14:05;;;;;;;14.70;9.10;;;15.30;99.90;;;;;;4981943;28;89634;-35
2022/06/11 04:16:42;;;;;;;12.35;8.02;;;15.30;99.90;;;;;;4982776;28;89038;-35
2022/06/11 04:19:14;;;;;;;13.88;7.22;;;15.40;99.90;;;;;;4982538;28;89869;-34
2022/06/11 04:21:39;;;;;;;10.63;8.40;;;15.40;99.90;;;;;;4982527;28;89998;-37
2022/06/11 04:24:06;;;;;;;14.30;8.20;;;15.40;99.90;;;;;;4981587;28;89598;-35
2022/06/11 04:26:36;;;;;;;16.10;7.68;;;15.50;99.90;;;;;;4982682;28;89082;-36
2022/06/11 04:29:04;;;;;;;11.70;6.78;;;15.50;99.90;;;;;;4982015;28;89511;-34
2022/06/11 04:31:31;;;;;;;12.13;6.80;;;15.70;99.90;;;;;;4981753;28;91085;-37
2022/06/11 04:33:58;;;;;;;10.20;6.17;;;15.90;99.90;;;;;;4982439;28;90492;-37
2022/06/11 04:36:26;;;;;;;10.32;5.72;;;16.00;99.90;;;;;;4981920;28;89120;-34
2022/06/11 04:38:52;;;;;;;7.32;4.95;;;16.10;99.90;;;;;;4981594;28;89621;-34
2022/06/11 04:41:18;;;;;;;9.32;4.80;;;16.30;99.90;;;;;;4981992;28;89732;-37
2022/06/11 04:43:44;;;;;;;7.03;4.93;;;16.50;99.90;;;;;;4981510;28;89417;-33
2022/06/11 04:46:10;;;;;;;11.70;5.25;;;16.60;99.90;;;;;;4982462;28;89266;-35
2022/06/11 04:48:36;;;;;;;17.58;4.93;;;16.80;99.90;;;;;;4982113;28;90467;-36
2022/06/11 04:51:03;;;;;;;9.25;4.03;;;16.90;99.90;;;;;;4981750;28;89940;-35
2022/06/11 04:53:29;;;;;;;8.27;4.75;;;17.00;99.90;;;;;;4981339;28;89544;-35
2022/06/11 04:55:54;;;;;;;11.63;4.15;;;17.10;99.90;;;;;;4982171;28;88836;-35
2022/06/11 04:58:20;;;;;;;7.22;3.83;;;17.20;99.90;;;;;;4980761;28;90453;-33
2022/06/11 05:00:46;;;;;;;6.55;4.18;;;17.40;99.90;;;;;;4981769;28;89922;-38
2022/06/11 05:03:12;;;;;;;14.02;4.28;;;17.60;99.90;;;;;;4981485;28;89778;-37
2022/06/11 05:05:38;;;;;;;13.13;4.18;;;17.60;99.90;;;;;;4982212;28;89650;-33
2022/06/11 05:08:05;;;;;;;11.15;4.50;;;17.70;99.90;;;;;;4981698;28;90331;-34
2022/06/11 05:10:34;;;;;;;18.88;4.50;;;17.70;99.90;;;;;;4981520;28;89687;-35
2022/06/11 05:13:00;;;;;;;10.38;5.53;;;18.00;99.90;;;;;;4981135;28;89887;-35
2022/06/11 05:15:26;;;;;;;5.43;3.75;;;17.90;99.90;;;;;;4981409;28;87995;-37
2022/06/11 05:17:52;;;;;;;6.43;3.35;;;18.10;99.90;;;;;;4981097;28;90185;-35
2022/06/11 05:20:19;;;;;;;12.50;4.18;;;18.20;99.90;;;;;;4980043;28;91083;-38
2022/06/11 05:22:45;;;;;;;8.05;4.28;;;18.20;99.90;;;;;;4981689;28;90791;-35
2022/06/11 05:25:13;;;;;;;7.43;3.88;;;18.40;99.90;;;;;;4981337;28;88319;-36
2022/06/11 05:27:41;;;;;;;9.90;4.25;;;18.40;99.90;;;;;;4980661;28;89279;-34
2022/06/11 05:30:09;;;;;;;;;;;18.50;99.90;;;;;;4981741;28;90226;-34
2022/06/11 05:32:37;;;;;;;13.23;4.68;;;18.50;99.90;;;;;;4982757;28;88913;-38
2022/06/11 05:35:06;;;;;;;4.32;3.67;;;18.60;99.90;;;;;;4981685;28;90399;-34
2022/06/11 05:37:32;;;;;;;13.18;4.35;;;18.70;99.90;;;;;;4981280;28;90373;-34
2022/06/11 05:39:57;;;;;;;5.60;3.42;;;18.70;99.90;;;;;;4980514;28;89742;-32
2022/06/11 05:42:25;;;;;;;7.30;3.95;;;18.60;99.90;;;;;;4980939;28;89569;-35
2022/06/11 05:44:51;;;;;;;8.43;4.80;;;18.60;99.90;;;;;;4980797;28;88797;-35
2022/06/11 05:47:21;;;;;;;9.57;3.92;;;18.80;99.90;;;;;;4980416;28;89213;-35
2022/06/11 05:49:49;;;;;;;12.95;5.50;;;18.80;99.90;;;;;;4980220;28;89597;-34
2022/06/11 05:52:22;;;;;;;7.13;4.30;;;18.90;99.90;;;;;;4980872;28;90116;-34
2022/06/11 05:54:49;;;;;;;8.90;4.72;;;19.10;99.90;;;;;;4972800;28;87700;-34
2022/06/11 05:57:20;;;;;;;8.77;4.83;;;19.30;99.90;;;;;;4966970;28;90377;-35
2022/06/11 05:59:50;;;;;;;10.35;4.45;;;19.20;99.90;;;;;;4980281;28;89672;-35
2022/06/11 06:02:19;;;;;;;7.82;4.10;;;19.10;99.90;;;;;;4980028;28;91314;-37
2022/06/11 06:04:45;;;;;;;10.88;4.82;;;19.10;99.90;;;;;;4980654;28;90249;-36
2022/06/11 06:07:11;;;;;;;7.13;3.97;;;19.30;99.90;;;;;;4980318;28;90341;-38
2022/06/11 06:09:37;;;;;;;7.20;4.13;;;19.40;99.90;;;;;;4979803;28;90391;-38
2022/06/11 06:12:03;;;;;;;7.32;4.72;;;19.40;99.90;;;;;;4980013;28;90452;-34
2022/06/11 06:14:30;;;;;;;11.20;4.95;;;19.30;99.90;;;;;;4973113;28;89279;-35
2022/06/11 06:16:55;;;;;;;10.55;4.43;;;19.40;99.90;;;;;;4974934;28;90337;-33
2022/06/11 06:19:21;;;;;;;11.80;3.75;;;19.50;99.90;;;;;;4980515;28;89602;-35
2022/06/11 06:21:47;;;;;;;11.00;4.13;;;19.50;99.90;;;;;;4981102;28;89248;-34
2022/06/11 06:24:12;;;;;;;8.32;4.13;;;19.70;99.90;;;;;;4979744;28;90074;-36
2022/06/11 06:26:38;;;;;;;9.45;4.63;;;19.80;99.90;;;;;;4980766;28;90188;-37
2022/06/11 06:29:04;;;;;;;13.80;5.28;;;19.80;99.90;;;;;;4979207;28;89842;-36
2022/06/11 06:31:31;;;;;;;8.80;3.90;;;20.00;99.90;;;;;;4980368;28;89442;-34
2022/06/11 06:33:59;;;;;;;13.20;3.75;;;20.10;99.90;;;;;;4966632;28;90236;-33
2022/06/11 06:36:25;;;;;;;17.45;4.07;;;20.30;99.90;;;;;;4966592;28;89988;-35
2022/06/11 06:38:51;;;;;;;9.02;4.57;;;20.30;99.90;;;;;;4979498;28;90212;-34
2022/06/11 06:41:17;;;;;;;10.90;4.28;;;20.30;99.90;;;;;;4980152;28;90241;-34
2022/06/11 06:43:43;;;;;;;8.73;4.60;;;20.10;99.90;;;;;;4980207;28;88780;-35
2022/06/11 06:46:09;;;;;;;12.60;5.15;;;20.30;99.90;;;;;;4980070;28;89917;-34
2022/06/11 06:48:35;;;;;;;10.88;4.97;;;20.60;99.90;;;;;;4978100;28;89630;-37
2022/06/11 06:51:01;;;;;;;10.23;5.68;;;20.50;99.90;;;;;;4960074;28;89686;-36
2022/06/11 06:53:27;;;;;;;14.95;5.47;;;20.40;99.90;;;;;;4964042;28;88612;-35
2022/06/11 06:55:53;;;;;;;11.15;4.70;;;20.50;99.90;;;;;;4979514;28;90058;-38
2022/06/11 06:58:19;;;;;;;13.55;5.43;;;20.50;99.90;;;;;;4979265;28;90813;-35
2022/06/11 07:00:46;;;;;;;20.15;6.53;;;20.70;99.90;;;;;;4975631;28;91081;-36
2022/06/11 07:03:12;;;;;;;12.75;4.78;;;20.70;99.90;;;;;;4958398;28;89536;-35
2022/06/11 07:05:39;;;;;;;15.20;4.88;;;20.80;99.90;;;;;;4977200;28;89927;-36
2022/06/11 07:08:06;;;;;;;11.35;4.20;;;20.90;99.90;;;;;;4978102;28;89654;-38
2022/06/11 07:10:32;;;;;;;13.18;5.47;;;21.10;99.90;;;;;;4977198;28;89267;-38
2022/06/11 07:12:58;;;;;;;11.15;4.80;;;21.10;99.90;;;;;;4977337;28;89661;-39
2022/06/11 07:15:25;;;;;;;12.10;4.95;;;21.40;99.90;;;;;;4977196;28;90087;-38
2022/06/11 07:18:00;;;;;;;10.70;5.28;;;21.60;99.90;;;;;;4976452;28;89702;-37
2022/06/11 07:20:29;;;;;;;14.13;5.05;;;21.60;99.90;;;;;;4978017;28;89468;-38
2022/06/11 07:22:57;;;;;;;10.95;4.85;;;21.60;99.90;;;;;;4965498;28;90104;-40
2022/06/11 07:25:24;;;;;;;14.75;5.65;;;21.90;99.90;;;;;;4971634;28;90896;-36
2022/06/11 07:27:56;;;;;;;14.05;5.25;;;21.80;99.90;;;;;;4977036;28;91151;-36
2022/06/11 07:30:25;;;;;;;9.77;4.65;;;21.50;99.90;;;;;;4977775;28;89272;-35
2022/06/11 07:32:56;;;;;;;16.50;4.25;;;21.70;99.90;;;;;;4977928;28;88791;-36
2022/06/11 07:35:21;;;;;;;11.77;5.20;;;21.40;99.90;;;;;;4977653;28;89738;-35
2022/06/11 07:37:49;;;;;;;17.60;4.78;;;21.60;99.90;;;;;;4975888;28;90633;-34
2022/06/11 07:40:15;;;;;;;13.43;5.20;;;21.50;99.90;;;;;;4963523;28;89085;-36
2022/06/11 07:42:41;;;;;;;12.15;4.70;;;21.60;99.90;;;;;;4957361;28;90313;-36
2022/06/11 07:45:07;;;;;;;8.60;4.13;;;21.70;99.90;;;;;;4961220;28;90289;-34
2022/06/11 07:50:17;;;;;;;11.15;4.13;;;21.80;99.90;;;;;;4964053;28;90616;-36
2022/06/11 07:52:43;;;;;;;15.73;5.00;;;21.60;99.90;;;;;;4976878;28;88816;-36
2022/06/11 07:55:11;;;;;;;9.18;4.40;;;21.80;99.90;;;;;;4977563;28;90137;-38
2022/06/11 07:57:38;;;;;;;8.48;4.30;;;21.90;99.90;;;;;;4975950;28;88595;-37
2022/06/11 08:00:06;;;;;;;14.20;6.10;;;21.80;99.90;;;;;;4976542;28;90239;-37
2022/06/11 08:02:32;;;;;;;;;;;21.80;99.90;;;;;;4969987;28;88991;-35
2022/06/11 08:04:57;;;;;;;10.65;5.30;;;21.80;99.90;;;;;;4972560;28;90902;-35
2022/06/11 08:07:25;;;;;;;16.35;5.20;;;22.00;99.90;;;;;;4975904;28;89945;-33
2022/06/11 08:09:50;;;;;;;9.10;5.00;;;22.20;99.90;;;;;;4976608;28;89172;-37
2022/06/11 08:12:16;;;;;;;14.55;4.78;;;22.20;99.90;;;;;;4976960;28;89676;-36
2022/06/11 08:14:42;;;;;;;11.23;5.40;;;22.60;99.90;;;;;;4976218;28;90609;-36
2022/06/11 08:17:07;;;;;;;11.80;5.63;;;22.50;99.90;;;;;;4976752;28;89938;-37
2022/06/11 08:19:33;;;;;;;9.77;4.75;;;22.20;99.90;;;;;;4976044;28;89838;-37
2022/06/11 08:21:58;;;;;;;10.20;4.78;;;21.90;99.90;;;;;;4977145;28;88344;-35
2022/06/11 08:24:24;;;;;;;10.52;4.88;;;21.80;99.90;;;;;;4976254;28;91377;-36
2022/06/11 08:26:49;;;;;;;15.63;5.57;;;22.10;99.90;;;;;;4976336;28;90085;-37
2022/06/11 08:29:15;;;;;;;11.68;5.65;;;22.40;99.90;;;;;;4975662;28;89494;-35
2022/06/11 08:31:41;;;;;;;16.20;5.97;;;22.50;99.90;;;;;;4976299;28;88476;-38
2022/06/11 08:34:06;;;;;;;14.75;6.13;;;21.90;99.90;;;;;;4976768;28;90328;-36
2022/06/11 08:36:32;;;;;;;13.05;6.15;;;21.90;99.90;;;;;;4975962;28;90742;-38
2022/06/11 08:38:57;;;;;;;13.95;5.47;;;22.10;99.90;;;;;;4976747;28;89823;-34
2022/06/11 08:41:31;;;;;;;14.88;5.30;;;22.00;99.90;;;;;;4976215;28;89046;-35
2022/06/11 08:44:02;;;;;;;14.40;5.47;;;21.80;99.90;;;;;;4976614;28;90458;-36
2022/06/11 08:46:32;;;;;;;19.65;6.10;;;21.70;99.90;;;;;;4976793;28;90269;-34
2022/06/11 08:49:03;;;;;;;14.57;5.68;;;21.60;99.90;;;;;;4976413;28;91215;-34
2022/06/11 08:51:41;;;;;;;13.05;5.40;;;22.10;99.90;;;;;;4977987;28;89685;-38
2022/06/11 08:54:14;;;;;;;11.68;4.65;;;22.20;99.90;;;;;;4979434;28;90044;-39
2022/06/11 08:56:47;;;;;;;18.27;5.90;;;22.40;99.90;;;;;;4979144;28;89698;-34
2022/06/11 08:59:35;;;;;;;16.63;5.38;;;22.50;99.90;;;;;;4979670;28;89134;-37
2022/06/11 09:02:01;;;;;;;17.40;4.68;;;22.50;99.90;;;;;;4979259;28;89003;-38
2022/06/11 09:04:38;;;;;;;21.92;5.78;;;22.50;99.90;;;;;;4979245;28;90083;-35
2022/06/11 09:07:19;;;;;;;16.70;6.47;;;22.50;99.90;;;;;;4978923;28;89609;-34
2022/06/11 09:09:53;;;;;;;19.80;6.05;;;22.90;99.90;;;;;;4978529;28;90859;-39
2022/06/11 09:13:06;;;;;;;13.00;6.80;;;23.00;99.90;;;;;;4980222;28;89932;-35
2022/06/11 09:15:34;;;;;;;10.82;5.57;;;23.20;99.90;;;;;;4979020;28;90396;-36
2022/06/11 09:18:19;;;;;;;22.00;5.65;;;22.90;99.90;;;;;;4979094;28;89725;-34
2022/06/11 09:21:18;;;;;;;9.30;4.35;;;22.70;99.90;;;;;;4979219;28;89468;-36
2022/06/11 09:23:54;;;;;;;19.38;5.18;;;23.10;99.90;;;;;;4966360;28;88420;-35
2022/06/11 09:26:46;;;;;;;14.93;5.32;;;22.70;99.90;;;;;;4979515;28;90065;-37
2022/06/11 09:29:15;;;;;;;13.25;5.13;;;22.20;99.90;;;;;;4978774;28;89689;-34
2022/06/11 09:31:49;;;;;;;7.50;4.38;;;22.20;99.90;;;;;;4978796;28;89651;-36
2022/06/11 09:34:33;;;;;;;21.55;6.28;;;22.10;99.90;;;;;;4980040;28;88494;-36
2022/06/11 09:37:25;;;;;;;18.38;4.72;;;22.00;99.90;;;;;;4978431;28;90708;-34
2022/06/11 09:40:15;;;;;;;12.02;4.75;;;22.50;99.90;;;;;;4979021;28;89410;-38
2022/06/11 09:42:57;;;;;;;23.02;5.53;;;22.50;99.90;;;;;;4978892;28;89691;-38
2022/06/11 09:45:22;;;;;;;13.00;4.95;;;22.10;99.90;;;;;;4978865;28;88544;-36
2022/06/11 09:48:21;;;;;;;10.88;5.22;;;22.10;99.90;;;;;;4977712;28;91687;-35
2022/06/11 09:51:02;;;;;;;16.13;4.95;;;22.20;99.90;;;;;;4979204;28;89016;-38
2022/06/11 09:54:04;;;;;;;11.00;5.75;;;22.30;99.90;;;;;;4978989;28;89007;-34
2022/06/11 09:57:20;;;;;;;7.32;4.05;;;22.90;99.90;;;;;;4978231;28;89997;-35
2022/06/11 10:00:02;;;;;;;10.73;4.20;;;23.10;99.90;;;;;;4954640;28;90116;-38
2022/06/11 10:06:13;;;;;;;14.57;4.88;;;23.00;95.20;;;;;;4970112;28;89947;-38
2022/06/11 10:08:48;;;;;;;18.17;5.05;;;22.50;99.90;;;;;;4978546;28;90027;-35
2022/06/11 10:11:29;;;;;;;9.95;3.70;;;22.50;99.90;;;;;;4978907;28;90292;-35
2022/06/11 10:14:29;;;;;;;10.63;3.30;;;22.50;94.30;;;;;;4977953;28;89536;-38
2022/06/11 10:17:01;;;;;;;11.07;4.60;;;22.60;88.00;;;;;;4977970;28;91228;-35
2022/06/11 10:20:00;;;;;;;7.60;3.63;;;22.70;86.90;;;;;;4979115;28;88078;-34
2022/06/11 10:22:29;;;;;;;7.70;4.32;;;22.60;80.80;;;;;;4978758;28;90070;-38
2022/06/11 10:25:04;;;;;;;7.82;3.03;;;22.80;91.10;;;;;;4977605;28;90783;-39
2022/06/11 10:27:34;;;;;;;8.88;3.25;;;23.00;89.60;;;;;;4978007;28;90799;-36
2022/06/11 10:30:12;;;;;;;5.95;2.80;;;23.00;81.70;;;;;;4978777;28;88734;-35
2022/06/11 10:32:42;;;;;;;10.85;4.18;;;23.00;75.50;;;;;;4977652;28;90244;-36
2022/06/11 10:35:11;;;;;;;6.13;3.63;;;23.20;70.70;;;;;;4978004;28;89680;-35
2022/06/11 10:37:49;;;;;;;13.18;5.03;;;23.20;71.80;;;;;;4977063;28;90307;-34
2022/06/11 10:40:46;;;;;;;33.50;4.90;;;23.10;69.40;;;;;;4978107;28;89469;-37
2022/06/11 10:43:31;;;;;;;11.75;3.35;;;23.00;64.50;;;;;;4973391;28;90715;-35
2022/06/11 10:45:58;;;;;;;16.20;3.53;;;22.80;65.10;;;;;;4977908;28;89674;-37
2022/06/11 10:48:27;;;;;;;6.00;3.72;;;23.00;75.00;;;;;;4976907;28;89965;-39
2022/06/11 10:50:53;;;;;;;14.10;4.60;;;23.10;70.10;;;;;;4976788;28;88665;-37
2022/06/11 10:53:29;;;;;;;9.07;3.85;;;23.00;70.10;;;;;;4977984;28;90324;-39
2022/06/11 10:56:00;;;;;;;11.13;3.70;;;22.70;73.70;;;;;;4978187;28;89673;-34
2022/06/11 10:58:35;;;;;;;12.38;4.28;;;22.90;76.80;;;;;;4977420;28;90484;-39
2022/06/11 11:01:14;;;;;;;7.55;3.55;;;23.00;69.70;;;;;;4977900;28;89115;-35
2022/06/11 11:04:16;;;;;;;5.82;3.17;;;23.10;72.00;;;;;;4977188;28;91873;-38
2022/06/11 11:06:42;;;;;;;6.72;3.10;;;23.00;69.80;;;;;;4975317;28;114426;-36
2022/06/11 11:09:13;;;;;;;13.13;3.85;;;23.10;69.20;;;;;;4977874;28;89722;-37
2022/06/11 11:11:56;;;;;;;11.25;3.65;;;23.20;66.80;;;;;;4977249;28;88502;-34
2022/06/11 11:14:31;;;;;;;9.57;4.22;;;23.10;67.50;;;;;;4976833;28;89848;-35
2022/06/11 11:17:00;;;;;;;11.38;4.57;;;23.10;69.40;;;;;;4963468;28;89702;-34
2022/06/11 11:19:29;;;;;;;17.80;4.28;;;22.80;68.70;;;;;;4977812;28;91760;-36
2022/06/11 11:22:04;;;;;;;8.68;3.08;;;22.80;70.60;;;;;;4977976;28;90609;-36
2022/06/11 11:24:37;;;;;;;7.95;3.60;;;22.70;69.60;;;;;;4977170;28;90984;-38
2022/06/11 11:27:25;;;;;;;12.32;2.85;;;22.90;75.20;;;;;;4976958;28;89623;-38
2022/06/11 11:30:16;;;;;;;14.32;4.57;;;23.00;78.10;;;;;;4960090;28;88899;-38
2022/06/11 11:32:44;;;;;;;11.98;4.22;;;23.00;70.20;;;;;;4967141;28;88872;-38
2022/06/11 11:35:22;;;;;;;11.45;3.10;;;22.80;64.30;;;;;;4977214;28;90942;-36
2022/06/11 11:38:03;;;;;;;15.65;4.07;;;22.90;65.70;;;;;;4976571;28;89376;-39
2022/06/11 11:40:35;;;;;;;7.30;3.10;;;23.00;64.10;;;;;;4977836;28;89397;-36
2022/06/11 11:43:10;;;;;;;11.60;4.72;;;22.90;63.70;;;;;;4977240;28;89283;-35
2022/06/11 11:45:53;;;;;;;8.05;2.58;;;22.90;63.30;;;;;;4968603;28;90655;-36
2022/06/11 11:48:55;;;;;;;12.70;3.78;;;22.90;70.00;;;;;;4962473;28;89410;-36
2022/06/11 11:51:27;;;;;;;9.82;3.63;;;23.00;68.10;;;;;;4961009;28;89875;-37
2022/06/11 11:53:59;;;;;;;3.92;2.70;;;23.00;69.80;;;;;;4964846;28;87865;-36
2022/06/11 11:56:38;;;;;;;8.77;4.05;;;23.00;67.70;;;;;;4965449;28;89942;-39
2022/06/11 11:59:14;;;;;;;9.60;3.15;;;23.10;68.20;;;;;;4967277;28;89609;-36
2022/06/11 12:01:40;;;;;;;9.20;3.72;;;23.10;65.00;;;;;;4957044;28;90652;-38
2022/06/11 12:04:13;;;;;;;8.98;3.17;;;23.00;65.50;;;;;;4954738;28;88124;-36
2022/06/11 12:06:45;;;;;;;7.85;2.97;;;23.10;67.30;;;;;;4958819;28;90429;-36
2022/06/11 12:09:28;;;;;;;8.80;3.10;;;23.00;63.50;;;;;;4967158;28;90532;-35
2022/06/11 12:12:09;;;;;;;9.55;3.10;;;22.90;64.40;;;;;;4960147;28;90483;-35
2022/06/11 12:15:14;;;;;;;10.50;3.47;;;22.90;70.90;;;;;;4966773;28;88663;-41
2022/06/11 12:17:54;;;;;;;5.40;2.72;;;23.10;66.80;;;;;;4960345;28;90998;-35
2022/06/11 12:20:52;;;;;;;7.75;3.10;;;22.80;65.60;;;;;;4956320;28;89561;-37
2022/06/11 12:23:44;;;;;;;8.40;3.83;;;22.90;67.30;;;;;;4964093;28;90351;-37
2022/06/11 12:26:19;;;;;;;9.57;4.47;;;22.90;66.30;;;;;;4970497;28;89106;-37
2022/06/11 12:28:53;;;;;;;7.50;3.40;;;22.90;71.40;;;;;;4961109;28;90406;-36
2022/06/11 12:31:19;;;;;;;9.32;3.65;;;23.20;75.00;;;;;;4961229;28;90059;-35
2022/06/11 12:33:46;;;;;;;11.93;4.18;;;23.20;70.20;;;;;;4972774;28;89069;-35
2022/06/11 12:36:21;;;;;;;8.65;3.42;;;23.10;68.20;;;;;;4961750;28;91031;-36
2022/06/11 12:38:59;;;;;;;11.23;3.80;;;22.90;69.10;;;;;;4971256;28;90335;-35
2022/06/11 12:41:43;;;;;;;8.80;4.13;;;23.10;66.90;;;;;;4975157;28;91479;-34
2022/06/11 12:44:26;;;;;;;11.60;4.07;;;23.10;63.90;;;;;;4967484;28;90147;-34
2022/06/11 12:47:22;;;;;;;5.88;3.40;;;22.90;66.20;;;;;;4979015;28;89943;-35
2022/06/11 12:50:05;;;;;;;11.85;3.78;;;22.90;67.20;;;;;;4965925;28;90187;-38
2022/06/11 12:52:42;;;;;;;10.63;3.95;;;23.00;70.90;;;;;;4970302;28;90386;-35
2022/06/11 12:55:20;;;;;;;7.95;3.60;;;23.20;66.80;;;;;;4975751;28;90075;-35
2022/06/11 12:58:14;;;;;;;14.18;5.20;;;23.00;69.40;;;;;;4996192;22;89812;-37
2022/06/11 13:00:58;;;;;;;11.45;3.42;;;22.80;67.80;;;;;;4963051;28;90438;-43
2022/06/11 13:04:00;;;;;;;13.55;5.30;;;23.00;66.60;;;;;;4961730;28;90730;-36
2022/06/11 13:06:43;;;;;;;7.85;3.65;;;23.00;67.10;;;;;;4958569;28;90510;-35
2022/06/11 13:09:21;;;;;;;7.65;3.60;;;22.90;67.90;;;;;;4959427;28;88993;-35
2022/06/11 13:12:09;;;;;;;5.07;2.72;;;23.00;72.60;;;;;;4949439;28;90272;-38
2022/06/11 13:14:38;;;;;;;14.20;3.63;;;23.10;74.90;;;;;;4958522;28;89793;-37
2022/06/11 13:17:28;;;;;;;4.85;3.30;;;23.00;70.00;;;;;;4957788;28;89513;-36